sensor_id;sensor_type;location;lat;lon;timestamp;P1;durP1;ratioP1;P2;durP2;ratioP2
59052;SDS011;44843;44.728;10.396;2022-09-28T00:00:02;2.92;;;1.25;;
59052;SDS011;44843;44.728;10.396;2022-09-28T00:02:27;6.28;;;1.13;;
59052;SDS011;44843;44.728;10.396;2022-09-28T00:04:53;10.35;;;1.42;;
59052;SDS011;44843;44.728;10.396;2022-09-28T00:07:18;4.88;;;1.45;;
59052;SDS011;44843;44.728;10.396;2022-09-28T00:09:43;3.83;;;1.60;;
59052;SDS011;44843;44.728;10.396;2022-09-28T00:14:34;2.42;;;1.08;;
59052;SDS011;44843;44.728;10.396;2022-09-28T00:16:59;5.68;;;1.20;;
59052;SDS011;44843;44.728;10.396;2022-09-28T00:19:24;9.35;;;1.30;;
59052;SDS011;44843;44.728;10.396;2022-09-28T00:21:50;3.42;;;1.10;;
59052;SDS011;44843;44.728;10.396;2022-09-28T00:24:15;2.90;;;1.27;;
59052;SDS011;44843;44.728;10.396;2022-09-28T00:26:48;9.32;;;2.45;;
59052;SDS011;44843;44.728;10.396;2022-09-28T00:29:32;3.03;;;1.67;;
59052;SDS011;44843;44.728;10.396;2022-09-28T00:31:59;5.18;;;2.33;;
59052;SDS011;44843;44.728;10.396;2022-09-28T00:34:27;5.88;;;2.65;;
59052;SDS011;44843;44.728;10.396;2022-09-28T00:36:52;5.68;;;2.30;;
59052;SDS011;44843;44.728;10.396;2022-09-28T00:39:17;4.95;;;2.10;;
59052;SDS011;44843;44.728;10.396;2022-09-28T00:41:43;7.75;;;2.60;;
59052;SDS011;44843;44.728;10.396;2022-09-28T00:46:46;4.72;;;2.25;;
59052;SDS011;44843;44.728;10.396;2022-09-28T00:49:13;8.10;;;2.45;;
59052;SDS011;44843;44.728;10.396;2022-09-28T00:51:39;4.47;;;2.50;;
59052;SDS011;44843;44.728;10.396;2022-09-28T00:54:06;6.10;;;2.40;;
59052;SDS011;44843;44.728;10.396;2022-09-28T00:56:32;5.93;;;2.10;;
59052;SDS011;44843;44.728;10.396;2022-09-28T00:58:59;6.68;;;2.80;;
59052;SDS011;44843;44.728;10.396;2022-09-28T01:01:28;3.60;;;2.08;;
59052;SDS011;44843;44.728;10.396;2022-09-28T01:03:53;3.92;;;2.30;;
59052;SDS011;44843;44.728;10.396;2022-09-28T01:06:22;6.35;;;2.25;;
59052;SDS011;44843;44.728;10.396;2022-09-28T01:08:48;6.15;;;2.53;;
59052;SDS011;44843;44.728;10.396;2022-09-28T01:11:15;8.13;;;2.30;;
59052;SDS011;44843;44.728;10.396;2022-09-28T01:13:40;6.50;;;2.30;;
59052;SDS011;44843;44.728;10.396;2022-09-28T01:21:18;4.00;;;1.70;;
59052;SDS011;44843;44.728;10.396;2022-09-28T01:28:44;6.78;;;1.88;;
59052;SDS011;44843;44.728;10.396;2022-09-28T01:31:12;10.63;;;2.75;;
59052;SDS011;44843;44.728;10.396;2022-09-28T01:33:41;4.50;;;1.77;;
59052;SDS011;44843;44.728;10.396;2022-09-28T01:36:09;6.50;;;2.08;;
59052;SDS011;44843;44.728;10.396;2022-09-28T01:38:54;3.45;;;1.50;;
59052;SDS011;44843;44.728;10.396;2022-09-28T01:41:21;7.43;;;1.98;;
59052;SDS011;44843;44.728;10.396;2022-09-28T01:43:49;4.25;;;1.60;;
59052;SDS011;44843;44.728;10.396;2022-09-28T01:46:29;4.85;;;1.63;;
59052;SDS011;44843;44.728;10.396;2022-09-28T01:48:57;8.63;;;2.00;;
59052;SDS011;44843;44.728;10.396;2022-09-28T01:51:25;5.78;;;2.08;;
59052;SDS011;44843;44.728;10.396;2022-09-28T01:53:54;5.05;;;1.60;;
59052;SDS011;44843;44.728;10.396;2022-09-28T01:58:52;4.00;;;1.40;;
59052;SDS011;44843;44.728;10.396;2022-09-28T02:01:23;3.47;;;1.60;;
59052;SDS011;44843;44.728;10.396;2022-09-28T02:03:52;5.93;;;1.52;;
59052;SDS011;44843;44.728;10.396;2022-09-28T02:06:23;3.28;;;1.60;;
59052;SDS011;44843;44.728;10.396;2022-09-28T02:08:50;6.50;;;1.67;;
59052;SDS011;44843;44.728;10.396;2022-09-28T02:11:16;4.93;;;1.60;;
59052;SDS011;44843;44.728;10.396;2022-09-28T02:18:39;4.00;;;1.50;;
59052;SDS011;44843;44.728;10.396;2022-09-28T02:21:26;2.50;;;1.20;;
59052;SDS011;44843;44.728;10.396;2022-09-28T02:23:56;4.10;;;1.40;;
59052;SDS011;44843;44.728;10.396;2022-09-28T02:26:24;3.05;;;1.27;;
59052;SDS011;44843;44.728;10.396;2022-09-28T02:28:51;4.68;;;1.30;;
59052;SDS011;44843;44.728;10.396;2022-09-28T02:31:16;3.03;;;1.33;;
59052;SDS011;44843;44.728;10.396;2022-09-28T02:33:42;3.72;;;1.45;;
59052;SDS011;44843;44.728;10.396;2022-09-28T02:36:08;3.40;;;1.13;;
59052;SDS011;44843;44.728;10.396;2022-09-28T02:38:33;5.78;;;1.85;;
59052;SDS011;44843;44.728;10.396;2022-09-28T02:41:04;5.32;;;1.40;;
59052;SDS011;44843;44.728;10.396;2022-09-28T02:46:04;4.90;;;1.33;;
59052;SDS011;44843;44.728;10.396;2022-09-28T02:59:13;4.03;;;1.77;;
59052;SDS011;44843;44.728;10.396;2022-09-28T03:11:44;4.70;;;1.40;;
59052;SDS011;44843;44.728;10.396;2022-09-28T03:14:10;1.45;;;1.13;;
59052;SDS011;44843;44.728;10.396;2022-09-28T03:16:35;2.80;;;1.27;;
59052;SDS011;44843;44.728;10.396;2022-09-28T03:19:01;5.47;;;1.67;;
59052;SDS011;44843;44.728;10.396;2022-09-28T03:21:26;3.22;;;1.63;;
59052;SDS011;44843;44.728;10.396;2022-09-28T03:23:51;3.03;;;1.50;;
59052;SDS011;44843;44.728;10.396;2022-09-28T03:26:16;7.28;;;1.80;;
59052;SDS011;44843;44.728;10.396;2022-09-28T03:28:42;3.47;;;1.92;;
59052;SDS011;44843;44.728;10.396;2022-09-28T03:31:07;4.68;;;2.08;;
59052;SDS011;44843;44.728;10.396;2022-09-28T03:33:32;5.40;;;1.92;;
59052;SDS011;44843;44.728;10.396;2022-09-28T03:35:58;4.95;;;1.70;;
59052;SDS011;44843;44.728;10.396;2022-09-28T03:38:23;5.65;;;1.98;;
59052;SDS011;44843;44.728;10.396;2022-09-28T03:40:52;2.35;;;1.20;;
59052;SDS011;44843;44.728;10.396;2022-09-28T03:43:18;3.80;;;1.33;;
59052;SDS011;44843;44.728;10.396;2022-09-28T03:45:43;1.70;;;1.30;;
59052;SDS011;44843;44.728;10.396;2022-09-28T03:48:14;3.70;;;1.40;;
59052;SDS011;44843;44.728;10.396;2022-09-28T03:50:40;2.53;;;1.25;;
59052;SDS011;44843;44.728;10.396;2022-09-28T03:53:05;4.22;;;1.60;;
59052;SDS011;44843;44.728;10.396;2022-09-28T03:55:30;9.63;;;2.22;;
59052;SDS011;44843;44.728;10.396;2022-09-28T03:57:56;2.65;;;1.30;;
59052;SDS011;44843;44.728;10.396;2022-09-28T04:00:21;6.03;;;1.77;;
59052;SDS011;44843;44.728;10.396;2022-09-28T04:02:47;1.50;;;1.10;;
59052;SDS011;44843;44.728;10.396;2022-09-28T04:05:13;2.35;;;1.20;;
59052;SDS011;44843;44.728;10.396;2022-09-28T04:07:38;3.72;;;1.45;;
59052;SDS011;44843;44.728;10.396;2022-09-28T04:10:03;2.72;;;1.25;;
59052;SDS011;44843;44.728;10.396;2022-09-28T04:12:29;2.95;;;0.90;;
59052;SDS011;44843;44.728;10.396;2022-09-28T04:14:54;3.42;;;1.20;;
59052;SDS011;44843;44.728;10.396;2022-09-28T04:17:19;3.97;;;1.95;;
59052;SDS011;44843;44.728;10.396;2022-09-28T04:19:44;3.05;;;1.25;;
59052;SDS011;44843;44.728;10.396;2022-09-28T04:22:11;4.28;;;1.63;;
59052;SDS011;44843;44.728;10.396;2022-09-28T04:24:36;4.55;;;1.30;;
59052;SDS011;44843;44.728;10.396;2022-09-28T04:27:01;3.28;;;1.00;;
59052;SDS011;44843;44.728;10.396;2022-09-28T04:29:45;3.42;;;1.00;;
59052;SDS011;44843;44.728;10.396;2022-09-28T04:32:10;5.63;;;1.40;;
59052;SDS011;44843;44.728;10.396;2022-09-28T04:34:36;1.95;;;1.50;;
59052;SDS011;44843;44.728;10.396;2022-09-28T04:37:01;2.13;;;1.80;;
59052;SDS011;44843;44.728;10.396;2022-09-28T04:39:26;1.60;;;0.90;;
59052;SDS011;44843;44.728;10.396;2022-09-28T04:41:51;3.50;;;1.20;;
59052;SDS011;44843;44.728;10.396;2022-09-28T04:44:17;2.95;;;1.08;;
59052;SDS011;44843;44.728;10.396;2022-09-28T04:46:42;5.07;;;1.40;;
59052;SDS011;44843;44.728;10.396;2022-09-28T04:49:08;3.03;;;1.35;;
59052;SDS011;44843;44.728;10.396;2022-09-28T04:51:34;3.05;;;1.50;;
59052;SDS011;44843;44.728;10.396;2022-09-28T04:53:59;6.57;;;2.15;;
59052;SDS011;44843;44.728;10.396;2022-09-28T04:56:24;5.93;;;1.60;;
59052;SDS011;44843;44.728;10.396;2022-09-28T04:58:49;5.88;;;1.75;;
59052;SDS011;44843;44.728;10.396;2022-09-28T05:01:15;9.68;;;1.52;;
59052;SDS011;44843;44.728;10.396;2022-09-28T05:03:41;3.75;;;1.50;;
59052;SDS011;44843;44.728;10.396;2022-09-28T05:06:07;6.95;;;1.50;;
59052;SDS011;44843;44.728;10.396;2022-09-28T05:08:32;8.20;;;1.60;;
59052;SDS011;44843;44.728;10.396;2022-09-28T05:11:03;9.38;;;2.28;;
59052;SDS011;44843;44.728;10.396;2022-09-28T05:13:29;4.50;;;1.48;;
59052;SDS011;44843;44.728;10.396;2022-09-28T05:15:55;2.45;;;1.35;;
59052;SDS011;44843;44.728;10.396;2022-09-28T05:18:21;2.30;;;1.83;;
59052;SDS011;44843;44.728;10.396;2022-09-28T05:20:47;5.60;;;2.00;;
59052;SDS011;44843;44.728;10.396;2022-09-28T05:23:12;3.53;;;2.15;;
59052;SDS011;44843;44.728;10.396;2022-09-28T05:25:39;5.22;;;2.42;;
59052;SDS011;44843;44.728;10.396;2022-09-28T05:28:05;8.93;;;2.90;;
59052;SDS011;44843;44.728;10.396;2022-09-28T05:30:30;9.60;;;3.20;;
59052;SDS011;44843;44.728;10.396;2022-09-28T05:32:56;6.35;;;4.05;;
59052;SDS011;44843;44.728;10.396;2022-09-28T05:35:21;8.27;;;4.93;;
59052;SDS011;44843;44.728;10.396;2022-09-28T05:37:46;8.05;;;5.30;;
59052;SDS011;44843;44.728;10.396;2022-09-28T05:40:12;7.78;;;5.40;;
59052;SDS011;44843;44.728;10.396;2022-09-28T05:42:37;14.32;;;5.80;;
59052;SDS011;44843;44.728;10.396;2022-09-28T05:45:03;9.07;;;5.43;;
59052;SDS011;44843;44.728;10.396;2022-09-28T05:47:28;10.50;;;6.00;;
59052;SDS011;44843;44.728;10.396;2022-09-28T05:49:53;7.38;;;5.60;;
59052;SDS011;44843;44.728;10.396;2022-09-28T05:52:19;12.88;;;5.85;;
59052;SDS011;44843;44.728;10.396;2022-09-28T05:54:44;13.38;;;6.20;;
59052;SDS011;44843;44.728;10.396;2022-09-28T05:57:10;12.23;;;6.30;;
59052;SDS011;44843;44.728;10.396;2022-09-28T05:59:35;13.10;;;5.75;;
59052;SDS011;44843;44.728;10.396;2022-09-28T06:02:01;8.40;;;5.55;;
59052;SDS011;44843;44.728;10.396;2022-09-28T06:04:27;11.25;;;6.03;;
59052;SDS011;44843;44.728;10.396;2022-09-28T06:06:53;15.27;;;5.78;;
59052;SDS011;44843;44.728;10.396;2022-09-28T06:09:18;10.57;;;5.55;;
59052;SDS011;44843;44.728;10.396;2022-09-28T06:11:43;13.23;;;5.97;;
59052;SDS011;44843;44.728;10.396;2022-09-28T06:14:08;8.98;;;6.00;;
59052;SDS011;44843;44.728;10.396;2022-09-28T06:16:34;8.95;;;5.68;;
59052;SDS011;44843;44.728;10.396;2022-09-28T06:19:00;9.65;;;5.20;;
59052;SDS011;44843;44.728;10.396;2022-09-28T06:21:25;13.30;;;6.22;;
59052;SDS011;44843;44.728;10.396;2022-09-28T06:23:50;10.70;;;5.85;;
59052;SDS011;44843;44.728;10.396;2022-09-28T06:26:16;11.70;;;6.25;;
59052;SDS011;44843;44.728;10.396;2022-09-28T06:28:41;11.50;;;6.22;;
59052;SDS011;44843;44.728;10.396;2022-09-28T06:31:07;10.05;;;6.78;;
59052;SDS011;44843;44.728;10.396;2022-09-28T06:33:32;9.43;;;7.00;;
59052;SDS011;44843;44.728;10.396;2022-09-28T06:35:58;11.55;;;6.82;;
59052;SDS011;44843;44.728;10.396;2022-09-28T06:38:23;13.23;;;6.57;;
59052;SDS011;44843;44.728;10.396;2022-09-28T06:40:48;9.90;;;5.68;;
59052;SDS011;44843;44.728;10.396;2022-09-28T06:43:14;12.77;;;6.43;;
59052;SDS011;44843;44.728;10.396;2022-09-28T06:45:40;7.32;;;5.53;;
59052;SDS011;44843;44.728;10.396;2022-09-28T06:48:06;8.80;;;6.55;;
59052;SDS011;44843;44.728;10.396;2022-09-28T06:50:35;9.88;;;6.20;;
59052;SDS011;44843;44.728;10.396;2022-09-28T06:53:04;15.02;;;6.60;;
59052;SDS011;44843;44.728;10.396;2022-09-28T06:55:30;11.85;;;5.95;;
59052;SDS011;44843;44.728;10.396;2022-09-28T06:57:56;9.90;;;5.90;;
59052;SDS011;44843;44.728;10.396;2022-09-28T07:00:23;11.45;;;5.90;;
59052;SDS011;44843;44.728;10.396;2022-09-28T07:02:48;12.60;;;5.72;;
59052;SDS011;44843;44.728;10.396;2022-09-28T07:05:13;14.30;;;6.00;;
59052;SDS011;44843;44.728;10.396;2022-09-28T07:07:39;10.95;;;5.28;;
59052;SDS011;44843;44.728;10.396;2022-09-28T07:10:08;9.57;;;5.47;;
59052;SDS011;44843;44.728;10.396;2022-09-28T07:12:34;13.68;;;5.68;;
59052;SDS011;44843;44.728;10.396;2022-09-28T07:14:59;9.73;;;6.00;;
59052;SDS011;44843;44.728;10.396;2022-09-28T07:17:25;7.78;;;4.60;;
59052;SDS011;44843;44.728;10.396;2022-09-28T07:19:50;9.25;;;4.85;;
59052;SDS011;44843;44.728;10.396;2022-09-28T07:22:17;15.25;;;5.47;;
59052;SDS011;44843;44.728;10.396;2022-09-28T07:24:42;8.15;;;5.55;;
59052;SDS011;44843;44.728;10.396;2022-09-28T07:27:08;12.18;;;4.85;;
59052;SDS011;44843;44.728;10.396;2022-09-28T07:29:33;7.82;;;4.78;;
59052;SDS011;44843;44.728;10.396;2022-09-28T07:31:59;12.43;;;5.47;;
59052;SDS011;44843;44.728;10.396;2022-09-28T07:34:24;9.20;;;5.32;;
59052;SDS011;44843;44.728;10.396;2022-09-28T07:36:49;10.70;;;5.80;;
59052;SDS011;44843;44.728;10.396;2022-09-28T07:39:15;10.63;;;5.63;;
59052;SDS011;44843;44.728;10.396;2022-09-28T07:41:41;9.48;;;5.45;;
59052;SDS011;44843;44.728;10.396;2022-09-28T07:44:07;10.15;;;5.78;;
59052;SDS011;44843;44.728;10.396;2022-09-28T07:46:32;13.73;;;6.22;;
59052;SDS011;44843;44.728;10.396;2022-09-28T07:48:58;13.23;;;5.90;;
59052;SDS011;44843;44.728;10.396;2022-09-28T07:51:23;13.02;;;6.60;;
59052;SDS011;44843;44.728;10.396;2022-09-28T07:53:48;10.98;;;7.00;;
59052;SDS011;44843;44.728;10.396;2022-09-28T07:56:13;12.63;;;6.30;;
59052;SDS011;44843;44.728;10.396;2022-09-28T07:58:41;11.18;;;5.93;;
59052;SDS011;44843;44.728;10.396;2022-09-28T08:01:08;12.95;;;6.45;;
59052;SDS011;44843;44.728;10.396;2022-09-28T08:03:34;13.93;;;6.20;;
59052;SDS011;44843;44.728;10.396;2022-09-28T08:06:01;13.75;;;6.20;;
59052;SDS011;44843;44.728;10.396;2022-09-28T08:08:27;9.40;;;6.47;;
59052;SDS011;44843;44.728;10.396;2022-09-28T08:10:54;7.65;;;5.55;;
59052;SDS011;44843;44.728;10.396;2022-09-28T08:13:20;13.45;;;6.60;;
59052;SDS011;44843;44.728;10.396;2022-09-28T08:15:45;10.98;;;6.50;;
59052;SDS011;44843;44.728;10.396;2022-09-28T08:18:15;10.23;;;6.22;;
59052;SDS011;44843;44.728;10.396;2022-09-28T08:20:40;15.30;;;6.28;;
59052;SDS011;44843;44.728;10.396;2022-09-28T08:23:24;12.63;;;5.40;;
59052;SDS011;44843;44.728;10.396;2022-09-28T08:25:50;11.85;;;6.00;;
59052;SDS011;44843;44.728;10.396;2022-09-28T08:28:17;12.23;;;7.20;;
59052;SDS011;44843;44.728;10.396;2022-09-28T08:30:42;10.93;;;6.78;;
59052;SDS011;44843;44.728;10.396;2022-09-28T08:33:09;13.48;;;8.15;;
59052;SDS011;44843;44.728;10.396;2022-09-28T08:35:34;12.63;;;8.15;;
59052;SDS011;44843;44.728;10.396;2022-09-28T08:37:59;15.60;;;8.40;;
59052;SDS011;44843;44.728;10.396;2022-09-28T08:40:27;15.10;;;8.85;;
59052;SDS011;44843;44.728;10.396;2022-09-28T08:42:57;14.93;;;8.75;;
59052;SDS011;44843;44.728;10.396;2022-09-28T08:45:28;10.95;;;7.32;;
59052;SDS011;44843;44.728;10.396;2022-09-28T08:47:55;11.68;;;8.05;;
59052;SDS011;44843;44.728;10.396;2022-09-28T08:50:47;10.30;;;7.00;;
59052;SDS011;44843;44.728;10.396;2022-09-28T08:53:21;11.73;;;6.75;;
59052;SDS011;44843;44.728;10.396;2022-09-28T08:55:48;9.38;;;7.03;;
59052;SDS011;44843;44.728;10.396;2022-09-28T08:58:19;13.82;;;7.65;;
59052;SDS011;44843;44.728;10.396;2022-09-28T09:00:51;12.95;;;7.70;;
59052;SDS011;44843;44.728;10.396;2022-09-28T09:03:17;13.43;;;8.40;;
59052;SDS011;44843;44.728;10.396;2022-09-28T09:05:59;12.38;;;8.90;;
59052;SDS011;44843;44.728;10.396;2022-09-28T09:16:23;19.85;;;9.30;;
59052;SDS011;44843;44.728;10.396;2022-09-28T09:21:41;12.73;;;8.43;;
59052;SDS011;44843;44.728;10.396;2022-09-28T09:24:17;13.32;;;8.55;;
59052;SDS011;44843;44.728;10.396;2022-09-28T09:26:45;13.35;;;8.27;;
59052;SDS011;44843;44.728;10.396;2022-09-28T09:31:58;11.65;;;7.53;;
59052;SDS011;44843;44.728;10.396;2022-09-28T09:45:08;10.25;;;7.45;;
59052;SDS011;44843;44.728;10.396;2022-09-28T09:50:11;10.35;;;7.75;;
59052;SDS011;44843;44.728;10.396;2022-09-28T09:55:14;11.60;;;7.40;;
59052;SDS011;44843;44.728;10.396;2022-09-28T09:57:44;10.52;;;7.25;;
59052;SDS011;44843;44.728;10.396;2022-09-28T10:00:15;11.02;;;6.80;;
59052;SDS011;44843;44.728;10.396;2022-09-28T10:02:41;12.63;;;7.50;;
59052;SDS011;44843;44.728;10.396;2022-09-28T10:07:43;10.75;;;6.13;;
59052;SDS011;44843;44.728;10.396;2022-09-28T10:10:11;10.55;;;6.90;;
59052;SDS011;44843;44.728;10.396;2022-09-28T10:12:36;10.60;;;6.93;;
59052;SDS011;44843;44.728;10.396;2022-09-28T10:15:02;7.50;;;6.10;;
59052;SDS011;44843;44.728;10.396;2022-09-28T10:17:31;16.35;;;7.35;;
59052;SDS011;44843;44.728;10.396;2022-09-28T10:19:58;12.27;;;6.78;;
59052;SDS011;44843;44.728;10.396;2022-09-28T10:22:24;10.27;;;6.45;;
59052;SDS011;44843;44.728;10.396;2022-09-28T10:24:50;8.65;;;5.82;;
59052;SDS011;44843;44.728;10.396;2022-09-28T10:27:21;9.60;;;5.88;;
59052;SDS011;44843;44.728;10.396;2022-09-28T10:32:22;10.25;;;5.85;;
59052;SDS011;44843;44.728;10.396;2022-09-28T10:34:49;8.65;;;5.45;;
59052;SDS011;44843;44.728;10.396;2022-09-28T10:37:14;7.95;;;4.80;;
59052;SDS011;44843;44.728;10.396;2022-09-28T10:39:50;10.32;;;5.03;;
59052;SDS011;44843;44.728;10.396;2022-09-28T10:42:25;13.63;;;6.05;;
59052;SDS011;44843;44.728;10.396;2022-09-28T10:44:58;9.02;;;4.75;;
59052;SDS011;44843;44.728;10.396;2022-09-28T10:47:25;8.07;;;4.95;;
59052;SDS011;44843;44.728;10.396;2022-09-28T10:49:51;6.18;;;4.28;;
59052;SDS011;44843;44.728;10.396;2022-09-28T10:54:54;8.48;;;4.20;;
59052;SDS011;44843;44.728;10.396;2022-09-28T10:57:25;8.30;;;4.00;;
59052;SDS011;44843;44.728;10.396;2022-09-28T10:59:50;10.90;;;4.13;;
59052;SDS011;44843;44.728;10.396;2022-09-28T11:04:41;6.35;;;3.92;;
59052;SDS011;44843;44.728;10.396;2022-09-28T11:07:15;7.03;;;3.35;;
59052;SDS011;44843;44.728;10.396;2022-09-28T11:09:41;7.22;;;3.67;;
59052;SDS011;44843;44.728;10.396;2022-09-28T11:12:12;8.98;;;3.92;;
59052;SDS011;44843;44.728;10.396;2022-09-28T11:14:38;9.90;;;3.50;;
59052;SDS011;44843;44.728;10.396;2022-09-28T11:19:48;5.57;;;3.80;;
59052;SDS011;44843;44.728;10.396;2022-09-28T11:22:21;8.82;;;3.92;;
59052;SDS011;44843;44.728;10.396;2022-09-28T11:24:47;7.28;;;2.97;;
59052;SDS011;44843;44.728;10.396;2022-09-28T11:27:19;6.03;;;3.50;;
59052;SDS011;44843;44.728;10.396;2022-09-28T11:29:51;4.35;;;3.13;;
59052;SDS011;44843;44.728;10.396;2022-09-28T11:32:17;8.35;;;4.13;;
59052;SDS011;44843;44.728;10.396;2022-09-28T11:34:44;9.15;;;3.47;;
59052;SDS011;44843;44.728;10.396;2022-09-28T11:37:13;7.93;;;3.88;;
59052;SDS011;44843;44.728;10.396;2022-09-28T11:45:17;7.97;;;4.20;;
59052;SDS011;44843;44.728;10.396;2022-09-28T11:50:21;8.73;;;3.20;;
59052;SDS011;44843;44.728;10.396;2022-09-28T11:55:42;7.85;;;3.25;;
59052;SDS011;44843;44.728;10.396;2022-09-28T11:58:52;8.65;;;3.63;;
59052;SDS011;44843;44.728;10.396;2022-09-28T12:00:59;11.82;;;3.90;;
59052;SDS011;44843;44.728;10.396;2022-09-28T12:03:32;10.18;;;3.72;;
59052;SDS011;44843;44.728;10.396;2022-09-28T12:06:00;8.23;;;3.88;;
59052;SDS011;44843;44.728;10.396;2022-09-28T12:08:27;12.20;;;3.70;;
59052;SDS011;44843;44.728;10.396;2022-09-28T12:13:34;10.52;;;3.22;;
59052;SDS011;44843;44.728;10.396;2022-09-28T12:16:03;8.90;;;3.70;;
59052;SDS011;44843;44.728;10.396;2022-09-28T12:21:06;9.82;;;2.75;;
59052;SDS011;44843;44.728;10.396;2022-09-28T12:23:32;7.57;;;2.83;;
59052;SDS011;44843;44.728;10.396;2022-09-28T12:26:01;6.32;;;2.55;;
59052;SDS011;44843;44.728;10.396;2022-09-28T12:28:38;12.13;;;2.85;;
59052;SDS011;44843;44.728;10.396;2022-09-28T12:31:11;6.32;;;3.10;;
59052;SDS011;44843;44.728;10.396;2022-09-28T12:33:38;6.95;;;3.35;;
59052;SDS011;44843;44.728;10.396;2022-09-28T12:51:50;10.80;;;3.50;;
59052;SDS011;44843;44.728;10.396;2022-09-28T13:09:21;9.55;;;3.17;;
59052;SDS011;44843;44.728;10.396;2022-09-28T13:12:04;7.53;;;2.50;;
59052;SDS011;44843;44.728;10.396;2022-09-28T13:14:46;10.50;;;3.35;;
59052;SDS011;44843;44.728;10.396;2022-09-28T13:19:56;7.43;;;2.65;;
59052;SDS011;44843;44.728;10.396;2022-09-28T13:24:50;11.05;;;3.15;;
59052;SDS011;44843;44.728;10.396;2022-09-28T13:27:30;7.78;;;2.40;;
59052;SDS011;44843;44.728;10.396;2022-09-28T13:29:57;5.03;;;2.33;;
59052;SDS011;44843;44.728;10.396;2022-09-28T13:32:23;6.70;;;2.08;;
59052;SDS011;44843;44.728;10.396;2022-09-28T13:34:50;8.80;;;2.50;;
59052;SDS011;44843;44.728;10.396;2022-09-28T13:37:21;8.48;;;2.55;;
59052;SDS011;44843;44.728;10.396;2022-09-28T13:39:50;9.00;;;2.42;;
59052;SDS011;44843;44.728;10.396;2022-09-28T13:49:54;4.72;;;2.53;;
59052;SDS011;44843;44.728;10.396;2022-09-28T14:07:20;6.80;;;2.25;;
59052;SDS011;44843;44.728;10.396;2022-09-28T14:10:06;7.68;;;2.10;;
59052;SDS011;44843;44.728;10.396;2022-09-28T14:14:57;5.18;;;1.63;;
59052;SDS011;44843;44.728;10.396;2022-09-28T14:23:08;5.40;;;1.73;;
59052;SDS011;44843;44.728;10.396;2022-09-28T14:25:35;11.10;;;1.95;;
59052;SDS011;44843;44.728;10.396;2022-09-28T14:28:24;8.82;;;1.67;;
59052;SDS011;44843;44.728;10.396;2022-09-28T14:30:51;5.70;;;1.48;;
59052;SDS011;44843;44.728;10.396;2022-09-28T14:33:22;6.50;;;1.80;;
59052;SDS011;44843;44.728;10.396;2022-09-28T14:36:02;12.18;;;2.70;;
59052;SDS011;44843;44.728;10.396;2022-09-28T14:38:45;5.05;;;1.58;;
59052;SDS011;44843;44.728;10.396;2022-09-28T14:41:35;10.48;;;2.40;;
59052;SDS011;44843;44.728;10.396;2022-09-28T14:46:30;4.85;;;1.70;;
59052;SDS011;44843;44.728;10.396;2022-09-28T14:49:00;6.32;;;1.90;;
59052;SDS011;44843;44.728;10.396;2022-09-28T14:56:29;5.75;;;1.73;;
59052;SDS011;44843;44.728;10.396;2022-09-28T14:58:56;7.00;;;1.77;;
59052;SDS011;44843;44.728;10.396;2022-09-28T15:01:22;4.55;;;2.00;;
59052;SDS011;44843;44.728;10.396;2022-09-28T15:03:50;10.52;;;2.45;;
59052;SDS011;44843;44.728;10.396;2022-09-28T15:06:16;5.32;;;2.35;;
59052;SDS011;44843;44.728;10.396;2022-09-28T15:08:43;7.13;;;2.00;;
59052;SDS011;44843;44.728;10.396;2022-09-28T15:11:15;8.52;;;2.20;;
59052;SDS011;44843;44.728;10.396;2022-09-28T15:16:08;9.27;;;2.05;;
59052;SDS011;44843;44.728;10.396;2022-09-28T15:18:51;9.93;;;1.58;;
59052;SDS011;44843;44.728;10.396;2022-09-28T15:21:21;9.60;;;1.80;;
59052;SDS011;44843;44.728;10.396;2022-09-28T15:23:47;5.35;;;1.85;;
59052;SDS011;44843;44.728;10.396;2022-09-28T15:26:21;7.80;;;3.30;;
59052;SDS011;44843;44.728;10.396;2022-09-28T15:28:46;10.25;;;2.33;;
59052;SDS011;44843;44.728;10.396;2022-09-28T15:31:19;3.75;;;1.80;;
59052;SDS011;44843;44.728;10.396;2022-09-28T15:33:44;9.33;;;2.77;;
59052;SDS011;44843;44.728;10.396;2022-09-28T15:36:29;7.53;;;1.70;;
59052;SDS011;44843;44.728;10.396;2022-09-28T15:38:57;5.95;;;2.05;;
59052;SDS011;44843;44.728;10.396;2022-09-28T15:41:23;8.25;;;2.05;;
59052;SDS011;44843;44.728;10.396;2022-09-28T15:44:24;11.80;;;2.30;;
59052;SDS011;44843;44.728;10.396;2022-09-28T15:46:44;10.77;;;2.40;;
59052;SDS011;44843;44.728;10.396;2022-09-28T15:49:34;8.48;;;2.40;;
59052;SDS011;44843;44.728;10.396;2022-09-28T15:52:00;5.97;;;1.70;;
59052;SDS011;44843;44.728;10.396;2022-09-28T15:54:28;8.98;;;1.77;;
59052;SDS011;44843;44.728;10.396;2022-09-28T15:56:59;7.88;;;1.83;;
59052;SDS011;44843;44.728;10.396;2022-09-28T15:59:36;7.15;;;1.85;;
59052;SDS011;44843;44.728;10.396;2022-09-28T16:02:15;6.30;;;1.85;;
59052;SDS011;44843;44.728;10.396;2022-09-28T16:12:20;9.98;;;2.20;;
59052;SDS011;44843;44.728;10.396;2022-09-28T16:14:52;9.68;;;1.90;;
59052;SDS011;44843;44.728;10.396;2022-09-28T16:19:45;5.93;;;2.33;;
59052;SDS011;44843;44.728;10.396;2022-09-28T16:22:14;7.50;;;2.10;;
59052;SDS011;44843;44.728;10.396;2022-09-28T16:24:41;5.95;;;2.95;;
59052;SDS011;44843;44.728;10.396;2022-09-28T16:27:07;8.75;;;2.50;;
59052;SDS011;44843;44.728;10.396;2022-09-28T16:37:37;4.40;;;1.88;;
59052;SDS011;44843;44.728;10.396;2022-09-28T16:40:06;7.47;;;2.05;;
59052;SDS011;44843;44.728;10.396;2022-09-28T16:42:32;9.25;;;2.58;;
59052;SDS011;44843;44.728;10.396;2022-09-28T16:44:58;10.68;;;2.95;;
59052;SDS011;44843;44.728;10.396;2022-09-28T16:47:25;4.40;;;2.10;;
59052;SDS011;44843;44.728;10.396;2022-09-28T16:49:51;7.22;;;2.03;;
59052;SDS011;44843;44.728;10.396;2022-09-28T16:52:16;9.18;;;2.28;;
59052;SDS011;44843;44.728;10.396;2022-09-28T16:55:02;7.70;;;2.10;;
59052;SDS011;44843;44.728;10.396;2022-09-28T16:57:39;9.23;;;2.47;;
59052;SDS011;44843;44.728;10.396;2022-09-28T17:00:05;13.38;;;2.40;;
59052;SDS011;44843;44.728;10.396;2022-09-28T17:02:30;12.55;;;3.08;;
59052;SDS011;44843;44.728;10.396;2022-09-28T17:04:56;10.27;;;3.70;;
59052;SDS011;44843;44.728;10.396;2022-09-28T17:07:22;6.68;;;2.72;;
59052;SDS011;44843;44.728;10.396;2022-09-28T17:09:47;9.35;;;2.63;;
59052;SDS011;44843;44.728;10.396;2022-09-28T17:12:17;7.40;;;2.60;;
59052;SDS011;44843;44.728;10.396;2022-09-28T17:14:43;6.80;;;2.78;;
59052;SDS011;44843;44.728;10.396;2022-09-28T17:17:09;9.98;;;2.67;;
59052;SDS011;44843;44.728;10.396;2022-09-28T17:19:34;11.35;;;2.50;;
59052;SDS011;44843;44.728;10.396;2022-09-28T17:22:00;6.75;;;2.40;;
59052;SDS011;44843;44.728;10.396;2022-09-28T17:24:25;8.77;;;3.05;;
59052;SDS011;44843;44.728;10.396;2022-09-28T17:26:50;9.75;;;2.80;;
59052;SDS011;44843;44.728;10.396;2022-09-28T17:29:16;7.97;;;2.80;;
59052;SDS011;44843;44.728;10.396;2022-09-28T17:31:43;10.20;;;2.80;;
59052;SDS011;44843;44.728;10.396;2022-09-28T17:34:09;12.90;;;2.67;;
59052;SDS011;44843;44.728;10.396;2022-09-28T17:36:35;11.18;;;3.38;;
59052;SDS011;44843;44.728;10.396;2022-09-28T17:39:00;8.95;;;3.47;;
59052;SDS011;44843;44.728;10.396;2022-09-28T17:41:25;12.77;;;3.15;;
59052;SDS011;44843;44.728;10.396;2022-09-28T17:43:51;11.30;;;3.05;;
59052;SDS011;44843;44.728;10.396;2022-09-28T17:46:27;8.73;;;3.33;;
59052;SDS011;44843;44.728;10.396;2022-09-28T17:48:53;7.70;;;3.00;;
59052;SDS011;44843;44.728;10.396;2022-09-28T17:51:18;7.78;;;2.95;;
59052;SDS011;44843;44.728;10.396;2022-09-28T17:53:44;9.02;;;3.05;;